Time;durP1;ratioP1;P1;durP2;ratioP2;P2;SDS_P1;SDS_P2;PMS_P1;PMS_P2;Temp;Humidity;BMP_temperature;BMP_pressure;BME280_temperature;BME280_humidity;BME280_pressure;Samples;Min_cycle;Max_cycle;Signal;HPM_P1;HPM_P2
2022/04/15 00:01:58;;;;;;;19.53;13.50;;;;;;;;;;5028509;28;20699;-64
2022/04/15 00:04:25;;;;;;;24.23;14.83;;;;;;;;;;5030313;28;20222;-63
2022/04/15 00:06:52;;;;;;;22.00;13.47;;;;;;;;;;5027713;28;20194;-64
2022/04/15 00:09:19;;;;;;;20.00;12.90;;;;;;;;;;5010482;28;20274;-64
2022/04/15 00:11:45;;;;;;;21.13;13.20;;;;;;;;;;5010030;28;20200;-64
2022/04/15 00:14:13;;;;;;;22.10;14.00;;;;;;;;;;5007641;28;20235;-65
2022/04/15 00:16:43;;;;;;;21.97;14.70;;;;;;;;;;5010399;28;20284;-64
2022/04/15 00:19:11;;;;;;;22.40;14.33;;;;;;;;;;5009864;28;20203;-64
2022/04/15 00:21:38;;;;;;;22.80;14.73;;;;;;;;;;5009915;28;20598;-64
2022/04/15 00:24:05;;;;;;;22.83;15.37;;;;;;;;;;5010035;28;20212;-64
2022/04/15 00:26:31;;;;;;;21.40;13.90;;;;;;;;;;5009994;28;20283;-64
2022/04/15 00:29:17;;;;;;;25.13;14.90;;;;;;;;;;5010040;28;20172;-64
2022/04/15 00:31:44;;;;;;;23.43;14.03;;;;;;;;;;5029886;28;20183;-64
2022/04/15 00:34:28;;;;;;;24.53;14.33;;;;;;;;;;5027999;28;20186;-64
2022/04/15 00:36:55;;;;;;;22.77;14.50;;;;;;;;;;5029366;28;20655;-64
2022/04/15 00:39:21;;;;;;;21.63;14.40;;;;;;;;;;5029327;28;20186;-64
2022/04/15 00:41:48;;;;;;;22.90;14.43;;;;;;;;;;5029230;28;20185;-66
2022/04/15 00:44:15;;;;;;;19.80;13.40;;;;;;;;;;5020230;28;20314;-64
2022/04/15 00:46:59;;;;;;;20.93;14.27;;;;;;;;;;5009481;28;20175;-64
2022/04/15 00:49:25;;;;;;;23.43;14.80;;;;;;;;;;5009951;28;20192;-64
2022/04/15 00:51:52;;;;;;;21.17;14.13;;;;;;;;;;5009238;28;20184;-64
2022/04/15 00:54:20;;;;;;;20.97;14.50;;;;;;;;;;5008268;28;20203;-64
2022/04/15 00:56:46;;;;;;;24.87;14.23;;;;;;;;;;5027152;28;20287;-66
2022/04/15 00:59:31;;;;;;;21.20;13.33;;;;;;;;;;5026470;28;20167;-64
2022/04/15 01:01:58;;;;;;;21.40;13.57;;;;;;;;;;5020533;28;20191;-64
2022/04/15 01:04:42;;;;;;;22.10;13.73;;;;;;;;;;5014542;28;20207;-64
2022/04/15 01:07:09;;;;;;;23.73;14.73;;;;;;;;;;5014113;28;20192;-64
2022/04/15 01:09:54;;;;;;;23.30;13.93;;;;;;;;;;5009078;28;20176;-64
2022/04/15 01:12:21;;;;;;;21.43;14.07;;;;;;;;;;5022617;28;20190;-64
2022/04/15 01:14:48;;;;;;;25.07;14.90;;;;;;;;;;5016270;28;20227;-64
2022/04/15 01:17:14;;;;;;;22.63;14.87;;;;;;;;;;5022604;28;20187;-64
2022/04/15 01:19:41;;;;;;;22.10;14.47;;;;;;;;;;5011821;28;20296;-65
2022/04/15 01:22:08;;;;;;;24.07;14.60;;;;;;;;;;5021469;28;20196;-64
2022/04/15 01:24:38;;;;;;;22.83;14.00;;;;;;;;;;5018300;28;20216;-64
2022/04/15 01:27:06;;;;;;;20.50;13.77;;;;;;;;;;5012416;28;20495;-64
2022/04/15 01:29:39;;;;;;;21.83;14.03;;;;;;;;;;5017946;28;20293;-64
2022/04/15 01:32:07;;;;;;;21.83;13.20;;;;;;;;;;5028007;28;20199;-64
2022/04/15 01:34:34;;;;;;;19.77;13.83;;;;;;;;;;5018071;28;20531;-64
2022/04/15 01:37:01;;;;;;;22.73;14.93;;;;;;;;;;5018698;28;20782;-64
2022/04/15 01:39:28;;;;;;;23.93;15.53;;;;;;;;;;5023942;28;20194;-64
2022/04/15 01:41:54;;;;;;;20.93;14.20;;;;;;;;;;4991603;28;20735;-64
2022/04/15 01:44:21;;;;;;;21.43;13.97;;;;;;;;;;5016878;28;20227;-64
2022/04/15 01:46:48;;;;;;;21.17;13.63;;;;;;;;;;5016836;28;20191;-65
2022/04/15 01:49:15;;;;;;;21.77;14.23;;;;;;;;;;5022695;28;20659;-64
2022/04/15 01:51:41;;;;;;;22.00;14.43;;;;;;;;;;5009354;28;20218;-64
2022/04/15 01:54:08;;;;;;;23.77;14.63;;;;;;;;;;5013795;28;20426;-64
2022/04/15 01:56:34;;;;;;;20.80;13.83;;;;;;;;;;5020464;28;20188;-64
2022/04/15 01:59:01;;;;;;;22.20;14.20;;;;;;;;;;5012942;28;20187;-64
2022/04/15 02:01:28;;;;;;;20.97;13.97;;;;;;;;;;5019212;28;20238;-65
2022/04/15 02:03:55;;;;;;;21.37;13.97;;;;;;;;;;5016240;28;20215;-64
2022/04/15 02:06:22;;;;;;;23.97;14.93;;;;;;;;;;5019714;28;20729;-64
2022/04/15 02:08:48;;;;;;;24.00;14.33;;;;;;;;;;5014735;28;20187;-64
2022/04/15 02:11:33;;;;;;;23.87;15.63;;;;;;;;;;5019176;28;20176;-63
2022/04/15 02:13:59;;;;;;;26.03;15.03;;;;;;;;;;5021571;28;20230;-63
2022/04/15 02:16:26;;;;;;;23.20;14.87;;;;;;;;;;5008237;28;20192;-63
2022/04/15 02:18:53;;;;;;;24.80;15.00;;;;;;;;;;5019386;28;20539;-63
2022/04/15 02:21:20;;;;;;;27.37;16.63;;;;;;;;;;5012366;28;20188;-63
2022/04/15 02:24:04;;;;;;;25.80;15.80;;;;;;;;;;5008930;28;20223;-63
2022/04/15 02:26:31;;;;;;;26.47;16.27;;;;;;;;;;5022221;28;20188;-63
2022/04/15 02:28:58;;;;;;;22.00;14.77;;;;;;;;;;5023177;28;20198;-63
2022/04/15 02:31:25;;;;;;;27.63;18.10;;;;;;;;;;5013518;28;20519;-63
2022/04/15 02:33:52;;;;;;;22.50;14.93;;;;;;;;;;5021799;28;20197;-63
2022/04/15 02:36:36;;;;;;;22.43;14.13;;;;;;;;;;5013128;28;20175;-63
2022/04/15 02:39:03;;;;;;;21.43;15.33;;;;;;;;;;5024633;28;20192;-64
2022/04/15 02:41:30;;;;;;;22.97;15.93;;;;;;;;;;5011788;28;20198;-64
2022/04/15 02:43:57;;;;;;;25.20;15.83;;;;;;;;;;5023028;28;20563;-64
2022/04/15 02:46:23;;;;;;;26.83;15.80;;;;;;;;;;5009016;28;20220;-64
2022/04/15 02:48:50;;;;;;;24.63;14.77;;;;;;;;;;5015041;28;20300;-64
2022/04/15 02:51:17;;;;;;;24.33;14.77;;;;;;;;;;5024307;28;20191;-64
2022/04/15 02:53:44;;;;;;;24.67;15.47;;;;;;;;;;5023193;28;20186;-64
2022/04/15 02:56:11;;;;;;;22.73;15.20;;;;;;;;;;5023694;28;21052;-64
2022/04/15 02:58:38;;;;;;;24.03;15.30;;;;;;;;;;5023413;28;20202;-65
2022/04/15 03:01:04;;;;;;;27.33;17.83;;;;;;;;;;5026853;28;20219;-64
2022/04/15 03:03:49;;;;;;;28.33;16.27;;;;;;;;;;5011646;28;20196;-64
2022/04/15 03:06:16;;;;;;;29.47;17.33;;;;;;;;;;5028949;28;20190;-64
2022/04/15 03:08:43;;;;;;;33.17;18.67;;;;;;;;;;5029012;28;20196;-64
2022/04/15 03:11:10;;;;;;;32.27;18.90;;;;;;;;;;5029185;28;20194;-64
2022/04/15 03:13:36;;;;;;;28.07;18.27;;;;;;;;;;5026852;28;20282;-64
2022/04/15 03:16:03;;;;;;;32.80;18.80;;;;;;;;;;5028964;28;20732;-64
2022/04/15 03:18:30;;;;;;;32.17;19.67;;;;;;;;;;5022511;28;20193;-65
2022/04/15 03:20:58;;;;;;;31.03;19.97;;;;;;;;;;5019057;28;20186;-64
2022/04/15 03:23:24;;;;;;;33.33;19.30;;;;;;;;;;5028587;28;20235;-64
2022/04/15 03:25:51;;;;;;;35.43;21.07;;;;;;;;;;5026534;28;20222;-64
2022/04/15 03:28:19;;;;;;;30.97;18.97;;;;;;;;;;5027790;28;20223;-64
2022/04/15 03:30:46;;;;;;;35.50;20.03;;;;;;;;;;5021865;28;20559;-64
2022/04/15 03:33:12;;;;;;;36.43;19.33;;;;;;;;;;5014222;28;20200;-64
2022/04/15 03:35:39;;;;;;;39.67;21.30;;;;;;;;;;5011187;28;20191;-64
2022/04/15 03:38:06;;;;;;;36.97;21.60;;;;;;;;;;5009855;28;20192;-65
2022/04/15 03:40:32;;;;;;;37.27;21.60;;;;;;;;;;5013960;28;20758;-64
2022/04/15 03:42:59;;;;;;;37.30;21.27;;;;;;;;;;5017471;28;20199;-64
2022/04/15 03:45:26;;;;;;;42.90;22.63;;;;;;;;;;5011931;28;20223;-64
2022/04/15 03:47:57;;;;;;;33.37;19.43;;;;;;;;;;5011610;28;20198;-58
2022/04/15 03:50:24;;;;;;;41.07;20.70;;;;;;;;;;5016106;28;20702;-63
2022/04/15 03:52:51;;;;;;;35.70;20.03;;;;;;;;;;5021825;28;20192;-63
2022/04/15 03:55:18;;;;;;;35.67;19.77;;;;;;;;;;5011688;28;20828;-63
2022/04/15 03:57:46;;;;;;;36.40;19.00;;;;;;;;;;5016537;28;20634;-64
2022/04/15 04:00:14;;;;;;;37.90;19.67;;;;;;;;;;5025957;28;20244;-64
2022/04/15 04:02:45;;;;;;;32.97;19.43;;;;;;;;;;5012089;28;20202;-64
2022/04/15 04:05:13;;;;;;;36.03;19.17;;;;;;;;;;5012777;28;20223;-65
2022/04/15 04:07:41;;;;;;;33.10;19.33;;;;;;;;;;5028366;28;20210;-64
2022/04/15 04:10:08;;;;;;;36.87;19.23;;;;;;;;;;5023163;28;20188;-65
2022/04/15 04:12:35;;;;;;;33.83;19.27;;;;;;;;;;5014330;28;20188;-63
2022/04/15 04:15:05;;;;;;;33.20;18.90;;;;;;;;;;5020338;28;20592;-63
2022/04/15 04:17:32;;;;;;;34.00;18.97;;;;;;;;;;5021018;28;20369;-65
2022/04/15 04:19:59;;;;;;;32.73;19.20;;;;;;;;;;5017223;28;20226;-64
2022/04/15 04:22:28;;;;;;;37.00;19.93;;;;;;;;;;5017953;28;20342;-65
2022/04/15 04:24:55;;;;;;;34.77;18.20;;;;;;;;;;5016040;28;20223;-66
2022/04/15 04:27:22;;;;;;;34.47;19.93;;;;;;;;;;5025477;28;20191;-64
2022/04/15 04:29:49;;;;;;;36.33;20.40;;;;;;;;;;5026751;28;20241;-65
2022/04/15 04:32:17;;;;;;;39.50;21.57;;;;;;;;;;5024114;28;20230;-66
2022/04/15 04:34:43;;;;;;;38.90;21.40;;;;;;;;;;5030761;28;20558;-66
2022/04/15 04:37:11;;;;;;;41.40;21.70;;;;;;;;;;5025508;28;20195;-66
2022/04/15 04:39:37;;;;;;;38.03;20.43;;;;;;;;;;5011515;28;20187;-66
2022/04/15 04:42:05;;;;;;;37.57;20.63;;;;;;;;;;5025849;28;20239;-65
2022/04/15 04:44:33;;;;;;;37.47;20.40;;;;;;;;;;5027196;28;20207;-66
2022/04/15 04:47:00;;;;;;;36.90;21.23;;;;;;;;;;5024714;28;20203;-66
2022/04/15 04:49:30;;;;;;;34.93;20.07;;;;;;;;;;5026322;28;20180;-66
2022/04/15 04:51:57;;;;;;;38.83;21.90;;;;;;;;;;5025735;28;20203;-66
2022/04/15 04:54:23;;;;;;;38.80;21.23;;;;;;;;;;5025665;28;20195;-66
2022/04/15 04:56:50;;;;;;;35.47;20.60;;;;;;;;;;4994504;28;20216;-66
2022/04/15 04:59:17;;;;;;;37.13;21.03;;;;;;;;;;5024062;28;20229;-67
2022/04/15 05:01:44;;;;;;;36.07;19.83;;;;;;;;;;5022582;28;20214;-66
2022/04/15 05:04:11;;;;;;;36.13;19.93;;;;;;;;;;5022911;28;20736;-67
2022/04/15 05:06:38;;;;;;;42.57;22.97;;;;;;;;;;5022408;28;20199;-67
2022/04/15 05:09:04;;;;;;;39.87;21.47;;;;;;;;;;5021593;28;20194;-67
2022/04/15 05:11:31;;;;;;;34.03;20.77;;;;;;;;;;5020820;28;20215;-66
2022/04/15 05:13:59;;;;;;;34.57;19.77;;;;;;;;;;5019554;28;20242;-67
2022/04/15 05:16:26;;;;;;;35.13;20.97;;;;;;;;;;5020775;28;20270;-67
2022/04/15 05:18:53;;;;;;;34.60;19.77;;;;;;;;;;5021741;28;20593;-68
2022/04/15 05:21:20;;;;;;;33.47;19.90;;;;;;;;;;5019094;28;20230;-67
2022/04/15 05:23:47;;;;;;;39.00;22.30;;;;;;;;;;5020808;28;20191;-67
2022/04/15 05:26:14;;;;;;;36.33;20.67;;;;;;;;;;5020325;28;20246;-67
2022/04/15 05:28:42;;;;;;;38.27;20.47;;;;;;;;;;5020653;28;20195;-68
2022/04/15 05:31:09;;;;;;;32.47;19.77;;;;;;;;;;5016185;28;20277;-67
2022/04/15 05:33:36;;;;;;;34.53;20.03;;;;;;;;;;5020979;28;20187;-67
2022/04/15 05:36:04;;;;;;;34.77;19.20;;;;;;;;;;5021638;28;20729;-68
2022/04/15 05:38:31;;;;;;;32.70;19.90;;;;;;;;;;5020980;28;20674;-68
2022/04/15 05:40:58;;;;;;;32.17;18.13;;;;;;;;;;5018501;28;20859;-68
2022/04/15 05:43:25;;;;;;;33.30;19.50;;;;;;;;;;5020520;28;20322;-68
2022/04/15 05:45:52;;;;;;;29.20;17.73;;;;;;;;;;5021173;28;20208;-69
2022/04/15 05:48:19;;;;;;;30.47;18.80;;;;;;;;;;5021079;28;20270;-66
2022/04/15 05:50:46;;;;;;;30.20;18.53;;;;;;;;;;5018787;28;20202;-68
2022/04/15 05:53:13;;;;;;;28.87;17.80;;;;;;;;;;5019594;28;20195;-66
2022/04/15 05:55:40;;;;;;;28.87;18.03;;;;;;;;;;5019928;28;20718;-65
2022/04/15 05:58:10;;;;;;;28.83;18.50;;;;;;;;;;5019081;28;20200;-67
2022/04/15 06:00:37;;;;;;;31.03;18.03;;;;;;;;;;5016931;28;20289;-65
2022/04/15 06:03:07;;;;;;;28.83;16.63;;;;;;;;;;5020412;28;20736;-65
2022/04/15 06:05:35;;;;;;;24.50;15.57;;;;;;;;;;5019549;28;20238;-66
2022/04/15 06:08:02;;;;;;;27.50;15.20;;;;;;;;;;5021273;28;20203;-65
2022/04/15 06:10:30;;;;;;;20.83;13.33;;;;;;;;;;5019549;28;20187;-66
2022/04/15 06:13:09;;;;;;;21.73;13.03;;;;;;;;;;5017743;28;20187;-64
2022/04/15 06:15:41;;;;;;;21.50;14.33;;;;;;;;;;5015526;28;20226;-64
2022/04/15 06:18:08;;;;;;;18.73;13.13;;;;;;;;;;5020257;28;20649;-64
2022/04/15 06:20:35;;;;;;;23.93;17.07;;;;;;;;;;5018347;28;20210;-64
2022/04/15 06:23:02;;;;;;;21.27;15.20;;;;;;;;;;5019530;28;20245;-63
2022/04/15 06:25:30;;;;;;;18.47;12.13;;;;;;;;;;5019619;28;20214;-65
2022/04/15 06:27:57;;;;;;;17.73;11.20;;;;;;;;;;5018833;28;20211;-64
2022/04/15 06:30:24;;;;;;;15.60;11.13;;;;;;;;;;5018391;28;20542;-63
2022/04/15 06:32:53;;;;;;;16.93;12.27;;;;;;;;;;5019318;28;20701;-67
2022/04/15 06:35:20;;;;;;;22.63;15.93;;;;;;;;;;5019794;28;20250;-68
2022/04/15 06:37:47;;;;;;;24.70;16.60;;;;;;;;;;5022548;28;20210;-65
2022/04/15 06:40:14;;;;;;;16.00;10.00;;;;;;;;;;5021068;28;20195;-64
2022/04/15 06:42:42;;;;;;;15.53;10.80;;;;;;;;;;5020676;28;20807;-65
2022/04/15 06:45:13;;;;;;;11.87;7.90;;;;;;;;;;5020026;28;20211;-65
2022/04/15 06:47:40;;;;;;;10.83;7.33;;;;;;;;;;5020703;28;20279;-66
2022/04/15 06:50:07;;;;;;;12.20;8.27;;;;;;;;;;5022809;28;20198;-67
2022/04/15 06:52:35;;;;;;;9.97;7.30;;;;;;;;;;5025110;28;20210;-59
2022/04/15 06:55:03;;;;;;;20.83;11.40;;;;;;;;;;5023702;28;20999;-65
2022/04/15 06:57:31;;;;;;;21.10;11.73;;;;;;;;;;5024369;28;20539;-65
2022/04/15 06:59:59;;;;;;;21.93;10.97;;;;;;;;;;5024029;28;20896;-65
2022/04/15 07:02:26;;;;;;;16.33;9.33;;;;;;;;;;5011284;28;20233;-65
2022/04/15 07:04:53;;;;;;;15.63;7.87;;;;;;;;;;5023779;28;20188;-64
2022/04/15 07:07:20;;;;;;;14.47;7.73;;;;;;;;;;5021775;28;20674;-64
2022/04/15 07:09:50;;;;;;;14.47;7.00;;;;;;;;;;5023872;28;20176;-66
2022/04/15 07:12:17;;;;;;;10.27;5.83;;;;;;;;;;5025908;28;20625;-64
2022/04/15 07:14:45;;;;;;;10.43;5.97;;;;;;;;;;5023599;28;20255;-65
2022/04/15 07:17:12;;;;;;;9.77;5.20;;;;;;;;;;5023781;28;20208;-64
2022/04/15 07:19:41;;;;;;;9.77;5.27;;;;;;;;;;5024025;28;20686;-65
2022/04/15 07:22:09;;;;;;;10.43;5.13;;;;;;;;;;5022873;28;20540;-65
2022/04/15 07:24:38;;;;;;;9.40;5.47;;;;;;;;;;5021836;28;20221;-65
2022/04/15 07:27:05;;;;;;;7.30;4.47;;;;;;;;;;5023778;28;20305;-63
2022/04/15 07:29:32;;;;;;;7.10;4.33;;;;;;;;;;5023755;28;20191;-63
2022/04/15 07:32:00;;;;;;;6.57;4.53;;;;;;;;;;5023286;28;21080;-64
2022/04/15 07:34:28;;;;;;;7.27;4.53;;;;;;;;;;5022897;28;20198;-63
2022/04/15 07:36:55;;;;;;;9.47;5.17;;;;;;;;;;5023380;28;20206;-65
2022/04/15 07:39:23;;;;;;;7.93;4.83;;;;;;;;;;5022833;28;20187;-64
2022/04/15 07:41:51;;;;;;;7.30;4.90;;;;;;;;;;5020645;28;20210;-67
2022/04/15 07:44:18;;;;;;;8.37;5.43;;;;;;;;;;5021310;28;20229;-65
2022/04/15 07:46:46;;;;;;;9.50;5.90;;;;;;;;;;5023222;28;20250;-63
2022/04/15 07:49:13;;;;;;;8.60;5.07;;;;;;;;;;5010919;28;20196;-64
2022/04/15 07:51:40;;;;;;;7.33;4.60;;;;;;;;;;5037306;28;20193;-64
2022/04/15 07:54:08;;;;;;;8.77;5.70;;;;;;;;;;5037867;28;20179;-65
2022/04/15 07:56:35;;;;;;;7.93;5.27;;;;;;;;;;5011543;28;20203;-65
2022/04/15 07:59:02;;;;;;;8.27;5.10;;;;;;;;;;4999864;28;20229;-64
2022/04/15 08:01:30;;;;;;;8.17;5.27;;;;;;;;;;5020941;28;20219;-66
2022/04/15 08:03:57;;;;;;;7.67;4.87;;;;;;;;;;5027379;28;20212;-66
2022/04/15 08:06:24;;;;;;;9.40;5.13;;;;;;;;;;5042805;28;20222;-65
2022/04/15 08:08:55;;;;;;;8.23;5.50;;;;;;;;;;5033613;28;20277;-67
2022/04/15 08:11:23;;;;;;;7.83;5.07;;;;;;;;;;5025001;28;20206;-64
2022/04/15 08:13:50;;;;;;;7.47;5.47;;;;;;;;;;5017504;28;20318;-66
2022/04/15 08:16:17;;;;;;;9.27;5.93;;;;;;;;;;5019868;28;20207;-66
2022/04/15 08:18:44;;;;;;;10.23;6.70;;;;;;;;;;5021791;28;20199;-64
2022/04/15 08:21:14;;;;;;;13.30;8.60;;;;;;;;;;5023368;28;20196;-66
2022/04/15 08:23:41;;;;;;;15.87;11.33;;;;;;;;;;5019068;28;20237;-65
2022/04/15 08:26:09;;;;;;;21.87;14.43;;;;;;;;;;5031532;28;20226;-58
2022/04/15 08:28:36;;;;;;;21.63;14.53;;;;;;;;;;5049585;28;20189;-58
2022/04/15 08:31:03;;;;;;;25.20;15.93;;;;;;;;;;5008770;28;20898;-60
2022/04/15 08:33:30;;;;;;;21.10;14.30;;;;;;;;;;5025306;28;20941;-59
2022/04/15 08:35:58;;;;;;;23.83;16.17;;;;;;;;;;5020702;28;20186;-59
2022/04/15 08:38:25;;;;;;;22.10;15.80;;;;;;;;;;5021620;28;20211;-60
2022/04/15 08:40:54;;;;;;;23.43;15.90;;;;;;;;;;5024304;28;20226;-64
2022/04/15 08:43:21;;;;;;;24.23;16.07;;;;;;;;;;5020459;28;20647;-65
2022/04/15 08:45:48;;;;;;;23.77;16.20;;;;;;;;;;5027672;28;20302;-66
2022/04/15 08:48:15;;;;;;;25.73;16.90;;;;;;;;;;5025022;28;20612;-65
2022/04/15 08:50:42;;;;;;;25.40;18.67;;;;;;;;;;5008109;28;20287;-65
2022/04/15 08:53:09;;;;;;;29.97;19.83;;;;;;;;;;5009468;28;20276;-65
2022/04/15 08:55:37;;;;;;;32.40;21.73;;;;;;;;;;5010791;28;20564;-65
2022/04/15 08:58:03;;;;;;;41.27;24.40;;;;;;;;;;5028202;28;20225;-65
2022/04/15 09:00:32;;;;;;;42.47;25.77;;;;;;;;;;5028117;28;20230;-65
2022/04/15 09:02:59;;;;;;;44.53;26.43;;;;;;;;;;5029176;28;20995;-64
2022/04/15 09:05:28;;;;;;;43.63;27.87;;;;;;;;;;5028540;28;20612;-64
2022/04/15 09:08:08;;;;;;;48.90;28.03;;;;;;;;;;5029094;28;20551;-65
2022/04/15 09:10:35;;;;;;;43.70;25.83;;;;;;;;;;5029075;28;20219;-65
2022/04/15 09:13:20;;;;;;;48.00;27.37;;;;;;;;;;5028067;28;20176;-62
2022/04/15 09:15:48;;;;;;;49.07;28.07;;;;;;;;;;5028758;28;20315;-63
2022/04/15 09:18:28;;;;;;;48.50;27.10;;;;;;;;;;5028638;28;20203;-64
2022/04/15 09:21:13;;;;;;;48.47;25.87;;;;;;;;;;5010449;28;20222;-63
2022/04/15 09:23:58;;;;;;;55.87;27.17;;;;;;;;;;5009185;28;20235;-64
2022/04/15 09:26:25;;;;;;;54.97;25.80;;;;;;;;;;5007522;28;20208;-64
2022/04/15 09:28:53;;;;;;;52.67;25.00;;;;;;;;;;5009320;28;21008;-63
2022/04/15 09:31:21;;;;;;;53.10;25.20;;;;;;;;;;5009071;28;20206;-63
2022/04/15 09:33:54;;;;;;;56.07;25.70;;;;;;;;;;5008804;28;20216;-63
2022/04/15 09:36:39;;;;;;;40.90;19.93;;;;;;;;;;5013308;28;20191;-63
2022/04/15 09:39:10;;;;;;;40.07;19.10;;;;;;;;;;5020244;28;20192;-62
2022/04/15 09:41:39;;;;;;;39.77;18.57;;;;;;;;;;5019952;28;20227;-61
2022/04/15 09:44:06;;;;;;;34.17;17.40;;;;;;;;;;5020984;28;20298;-63
2022/04/15 09:46:33;;;;;;;30.93;16.90;;;;;;;;;;5008008;28;20308;-62
2022/04/15 09:49:17;;;;;;;29.10;14.83;;;;;;;;;;5021132;28;20655;-62
2022/04/15 09:51:46;;;;;;;18.20;9.83;;;;;;;;;;5020872;28;20218;-62
2022/04/15 09:54:23;;;;;;;16.23;7.83;;;;;;;;;;5020622;28;20199;-63
2022/04/15 09:56:51;;;;;;;11.50;5.63;;;;;;;;;;5022084;28;20238;-64
2022/04/15 09:59:21;;;;;;;12.37;6.47;;;;;;;;;;5020424;28;20438;-64
2022/04/15 10:01:53;;;;;;;11.67;6.60;;;;;;;;;;5021853;28;20559;-63
2022/04/15 10:04:22;;;;;;;11.80;5.97;;;;;;;;;;5019066;28;20215;-63
2022/04/15 10:06:49;;;;;;;12.07;5.50;;;;;;;;;;5019297;28;20207;-64
2022/04/15 10:09:16;;;;;;;12.40;6.17;;;;;;;;;;5020382;28;20211;-61
2022/04/15 10:11:44;;;;;;;12.63;6.63;;;;;;;;;;5020271;28;20202;-63
2022/04/15 10:14:11;;;;;;;12.13;6.10;;;;;;;;;;5021289;28;20230;-64
2022/04/15 10:16:39;;;;;;;13.23;7.17;;;;;;;;;;5017143;28;20188;-64
2022/04/15 10:19:07;;;;;;;13.57;7.27;;;;;;;;;;5020751;28;20306;-62
2022/04/15 10:21:34;;;;;;;15.33;7.60;;;;;;;;;;5020349;28;20205;-64
2022/04/15 10:24:03;;;;;;;16.60;7.87;;;;;;;;;;5020630;28;20203;-65
2022/04/15 10:26:34;;;;;;;16.67;8.40;;;;;;;;;;5020602;28;20511;-64
2022/04/15 10:29:03;;;;;;;17.20;9.30;;;;;;;;;;5019038;28;20854;-64
2022/04/15 10:31:36;;;;;;;18.37;9.67;;;;;;;;;;5020385;28;20446;-63
2022/04/15 10:34:11;;;;;;;15.97;9.47;;;;;;;;;;5020714;28;20516;-66
2022/04/15 10:36:38;;;;;;;20.13;10.33;;;;;;;;;;5035961;28;20947;-66
2022/04/15 10:39:06;;;;;;;17.77;9.20;;;;;;;;;;5016386;28;20542;-65
2022/04/15 10:41:42;;;;;;;17.20;8.73;;;;;;;;;;5029462;28;20219;-64
2022/04/15 10:44:12;;;;;;;17.33;9.97;;;;;;;;;;5027582;28;20256;-65
2022/04/15 10:46:40;;;;;;;17.50;9.13;;;;;;;;;;5027542;28;21217;-65
2022/04/15 10:49:20;;;;;;;22.93;10.37;;;;;;;;;;5025912;28;20453;-65
2022/04/15 10:52:12;;;;;;;19.83;10.17;;;;;;;;;;5027748;28;20195;-64
2022/04/15 10:54:39;;;;;;;24.33;9.87;;;;;;;;;;5016278;28;20457;-65
2022/04/15 10:57:09;;;;;;;22.37;11.57;;;;;;;;;;5034486;28;20421;-63
2022/04/15 11:02:35;;;;;;;19.70;9.60;;;;;;;;;;5039582;28;20503;-65
2022/04/15 11:05:03;;;;;;;22.43;9.40;;;;;;;;;;5039468;28;20448;-65
2022/04/15 11:07:59;;;;;;;21.40;9.97;;;;;;;;;;5039898;28;20669;-65
2022/04/15 11:10:45;;;;;;;17.73;8.53;;;;;;;;;;5038281;28;21600;-64
2022/04/15 11:13:43;;;;;;;18.83;8.77;;;;;;;;;;5040485;28;20428;-65
2022/04/15 11:16:12;;;;;;;14.77;7.37;;;;;;;;;;5040058;28;21364;-67
2022/04/15 11:18:58;;;;;;;13.00;6.23;;;;;;;;;;5039698;28;20972;-64
2022/04/15 11:21:32;;;;;;;13.50;6.80;;;;;;;;;;5041671;28;20452;-65
2022/04/15 11:24:00;;;;;;;15.47;7.03;;;;;;;;;;5043390;28;20488;-66
2022/04/15 11:26:28;;;;;;;12.27;6.23;;;;;;;;;;5043422;28;20575;-66
2022/04/15 11:28:57;;;;;;;9.37;5.67;;;;;;;;;;5045080;28;20445;-65
2022/04/15 11:31:30;;;;;;;12.43;6.50;;;;;;;;;;5044727;28;20569;-64
2022/04/15 11:34:11;;;;;;;11.80;5.77;;;;;;;;;;5043680;28;20285;-65
2022/04/15 11:36:39;;;;;;;12.40;6.03;;;;;;;;;;5041743;28;21023;-63
2022/04/15 11:39:11;;;;;;;10.13;5.10;;;;;;;;;;5044458;28;20199;-63
2022/04/15 11:41:47;;;;;;;12.70;5.47;;;;;;;;;;5044524;28;20551;-63
2022/04/15 11:44:17;;;;;;;10.67;5.17;;;;;;;;;;5024369;28;20485;-63
2022/04/15 11:46:44;;;;;;;9.17;5.40;;;;;;;;;;5023643;28;20697;-63
2022/04/15 11:49:11;;;;;;;6.30;4.30;;;;;;;;;;5023728;28;20450;-63
2022/04/15 11:51:56;;;;;;;11.23;5.10;;;;;;;;;;5020337;28;20294;-62
2022/04/15 11:54:23;;;;;;;13.77;5.97;;;;;;;;;;5022188;28;20496;-63
2022/04/15 11:57:09;;;;;;;8.37;5.57;;;;;;;;;;5022943;28;20430;-65
2022/04/15 11:59:36;;;;;;;12.87;7.40;;;;;;;;;;5023718;28;20431;-63
2022/04/15 12:02:04;;;;;;;17.17;7.87;;;;;;;;;;5023603;28;20457;-63
2022/04/15 12:04:31;;;;;;;14.90;9.10;;;;;;;;;;5024144;28;20434;-63
2022/04/15 12:06:58;;;;;;;16.93;9.47;;;;;;;;;;5020345;28;20490;-64
2022/04/15 12:09:26;;;;;;;16.60;10.03;;;;;;;;;;5021394;28;20445;-63
2022/04/15 12:12:08;;;;;;;18.63;9.10;;;;;;;;;;5021942;28;20453;-64
2022/04/15 12:14:54;;;;;;;22.77;11.10;;;;;;;;;;5021464;28;20534;-64
2022/04/15 12:17:21;;;;;;;20.93;10.87;;;;;;;;;;5024137;28;20453;-63
2022/04/15 12:19:50;;;;;;;21.50;11.23;;;;;;;;;;5021461;28;20449;-65
2022/04/15 12:22:17;;;;;;;22.33;11.37;;;;;;;;;;5018939;28;20443;-63
2022/04/15 12:24:44;;;;;;;20.83;11.77;;;;;;;;;;5012800;28;20537;-64
2022/04/15 12:27:18;;;;;;;21.20;11.60;;;;;;;;;;5021344;28;20494;-64
2022/04/15 12:29:51;;;;;;;21.07;12.33;;;;;;;;;;5022460;28;20452;-63
2022/04/15 12:32:38;;;;;;;58.80;29.80;;;;;;;;;;5022057;28;20437;-65
2022/04/15 12:35:11;;;;;;;33.77;17.03;;;;;;;;;;5021384;28;20437;-64
2022/04/15 12:37:53;;;;;;;27.20;15.67;;;;;;;;;;5021171;28;20442;-66
2022/04/15 12:40:21;;;;;;;33.37;20.13;;;;;;;;;;5018929;28;20863;-64
2022/04/15 12:42:49;;;;;;;23.00;14.73;;;;;;;;;;5026810;28;20434;-63
2022/04/15 12:45:17;;;;;;;16.60;11.07;;;;;;;;;;5028541;28;20446;-64
2022/04/15 12:47:46;;;;;;;15.90;11.33;;;;;;;;;;5028908;28;20466;-63
2022/04/15 12:50:20;;;;;;;14.97;10.57;;;;;;;;;;5028863;28;20452;-63
2022/04/15 12:52:48;;;;;;;18.70;11.20;;;;;;;;;;5029627;28;20435;-63
2022/04/15 12:55:28;;;;;;;18.20;11.43;;;;;;;;;;5029304;28;20524;-64
2022/04/15 12:57:55;;;;;;;18.70;10.57;;;;;;;;;;5028945;28;20954;-64
2022/04/15 13:00:22;;;;;;;19.00;12.20;;;;;;;;;;5028435;28;20945;-64
2022/04/15 13:02:49;;;;;;;19.57;11.43;;;;;;;;;;5028774;28;20853;-63
2022/04/15 13:05:16;;;;;;;17.37;11.37;;;;;;;;;;5029052;28;20462;-63
2022/04/15 13:07:43;;;;;;;16.27;11.00;;;;;;;;;;5029190;28;20891;-63
2022/04/15 13:10:10;;;;;;;16.53;10.80;;;;;;;;;;5027533;28;20437;-65
2022/04/15 13:12:57;;;;;;;17.90;12.03;;;;;;;;;;5027890;28;20437;-63
2022/04/15 13:15:26;;;;;;;20.10;11.73;;;;;;;;;;5011326;28;20536;-64
2022/04/15 13:17:53;;;;;;;16.37;11.20;;;;;;;;;;5019570;28;20447;-64
2022/04/15 13:20:20;;;;;;;19.17;11.80;;;;;;;;;;5008980;28;20525;-64
2022/04/15 13:22:47;;;;;;;16.97;11.60;;;;;;;;;;5009184;28;20546;-64
2022/04/15 13:25:14;;;;;;;16.60;10.23;;;;;;;;;;5008921;28;20474;-64
2022/04/15 13:27:41;;;;;;;17.37;10.40;;;;;;;;;;5008806;28;20473;-64
2022/04/15 13:30:09;;;;;;;11.83;7.97;;;;;;;;;;5008974;28;20426;-64
2022/04/15 13:32:36;;;;;;;13.90;8.67;;;;;;;;;;5008879;28;20439;-64
2022/04/15 13:35:03;;;;;;;14.57;8.23;;;;;;;;;;5007423;28;20486;-64
2022/04/15 13:37:30;;;;;;;14.93;10.27;;;;;;;;;;5007479;28;21306;-64
2022/04/15 13:39:56;;;;;;;14.03;9.97;;;;;;;;;;5015455;28;20446;-64
2022/04/15 13:42:23;;;;;;;18.77;11.03;;;;;;;;;;5028495;28;20959;-64
2022/04/15 13:45:08;;;;;;;16.33;8.83;;;;;;;;;;5027650;28;20418;-64
2022/04/15 13:47:35;;;;;;;14.43;8.43;;;;;;;;;;5028153;28;20457;-64
2022/04/15 13:50:20;;;;;;;14.27;9.23;;;;;;;;;;5027188;28;21158;-64
2022/04/15 13:58:39;;;;;;;16.37;9.60;;;;;;;;;;5006138;28;20443;-64
2022/04/15 14:01:23;;;;;;;15.67;10.03;;;;;;;;;;5015211;28;21289;-63
2022/04/15 14:03:51;;;;;;;19.33;10.83;;;;;;;;;;5009238;28;20442;-63
2022/04/15 14:06:18;;;;;;;21.20;12.10;;;;;;;;;;5008973;28;20485;-65
2022/04/15 14:08:45;;;;;;;16.90;8.67;;;;;;;;;;5043794;28;20430;-64
2022/04/15 14:11:12;;;;;;;13.03;9.00;;;;;;;;;;5042448;28;20448;-64
2022/04/15 14:13:43;;;;;;;13.77;8.93;;;;;;;;;;5042685;28;21328;-64
2022/04/15 14:16:10;;;;;;;16.70;9.30;;;;;;;;;;5048244;28;20448;-63
2022/04/15 14:18:39;;;;;;;15.03;9.03;;;;;;;;;;5028832;28;21027;-64
2022/04/15 14:21:06;;;;;;;14.40;9.00;;;;;;;;;;5026504;28;20462;-63
2022/04/15 14:23:33;;;;;;;14.43;9.43;;;;;;;;;;5027916;28;20479;-63
2022/04/15 14:26:17;;;;;;;21.90;11.33;;;;;;;;;;5028002;28;20418;-64
2022/04/15 14:28:44;;;;;;;30.10;21.37;;;;;;;;;;5028472;28;20553;-54
2022/04/15 14:31:28;;;;;;;18.47;10.87;;;;;;;;;;5028012;28;20519;-64
2022/04/15 14:33:56;;;;;;;16.60;8.83;;;;;;;;;;5025955;28;20960;-64
2022/04/15 14:36:26;;;;;;;19.33;11.00;;;;;;;;;;5027111;28;20449;-65
2022/04/15 14:38:54;;;;;;;12.70;7.83;;;;;;;;;;5027708;28;20910;-65
2022/04/15 14:41:22;;;;;;;10.83;5.73;;;;;;;;;;5047425;28;20433;-64
2022/04/15 14:43:49;;;;;;;9.77;6.13;;;;;;;;;;5046412;28;20439;-65